createdAt,value
2018-04-12T00:01:14.019Z,12.70
2018-04-12T00:06:17.681Z,12.60
2018-04-12T00:11:21.395Z,12.60
2018-04-12T00:16:24.101Z,12.60
2018-04-12T00:21:27.433Z,12.60
2018-04-12T00:26:30.345Z,12.50
2018-04-12T00:31:32.872Z,12.50
2018-04-12T00:36:35.969Z,12.50
2018-04-12T00:41:39.977Z,12.50
2018-04-12T00:46:43.685Z,12.50
2018-04-12T00:51:47.250Z,12.50
2018-04-12T00:56:49.834Z,12.50
2018-04-12T01:01:54.389Z,12.50
2018-04-12T01:06:57.056Z,12.50
2018-04-12T01:12:00.562Z,12.50
2018-04-12T01:17:03.333Z,12.50
2018-04-12T01:22:05.982Z,12.50
2018-04-12T01:27:09.458Z,12.50
2018-04-12T01:32:14.041Z,12.60
2018-04-12T01:37:16.837Z,12.50
2018-04-12T01:42:20.564Z,12.50
2018-04-12T01:47:24.438Z,12.50
2018-04-12T01:52:27.957Z,12.50
2018-04-12T01:57:30.569Z,12.50
2018-04-12T02:02:33.775Z,12.50
2018-04-12T02:07:36.682Z,12.50
2018-04-12T02:12:40.235Z,12.50
2018-04-12T02:17:44.911Z,12.40
2018-04-12T02:22:49.858Z,12.40
2018-04-12T02:27:53.350Z,12.40
2018-04-12T02:32:56.538Z,12.30
2018-04-12T02:37:59.385Z,12.30
2018-04-12T02:43:03.065Z,12.30
2018-04-12T02:48:05.825Z,12.30
2018-04-12T02:53:09.374Z,12.30
2018-04-12T02:58:12.381Z,12.30
2018-04-12T03:03:15.659Z,12.30
2018-04-12T03:08:19.411Z,12.30
2018-04-12T03:13:23.011Z,12.30
2018-04-12T03:18:25.664Z,12.30
2018-04-12T03:23:28.548Z,12.30
2018-04-12T03:28:32.249Z,12.30
2018-04-12T03:33:35.127Z,12.30
2018-04-12T03:38:37.986Z,12.30
2018-04-12T03:43:41.233Z,12.30
2018-04-12T03:48:44.362Z,12.30
2018-04-12T03:53:47.143Z,12.30
2018-04-12T03:58:49.899Z,12.40
2018-04-12T04:03:52.633Z,12.40
2018-04-12T04:08:55.972Z,12.50
2018-04-12T04:13:58.754Z,12.60
2018-04-12T04:19:13.454Z,12.60
2018-04-12T04:24:16.347Z,12.70
2018-04-12T04:29:20.069Z,12.70
2018-04-12T04:34:23.958Z,12.80
2018-04-12T04:39:26.926Z,12.80
2018-04-12T04:44:29.669Z,12.80
2018-04-12T04:49:33.463Z,12.90
2018-04-12T04:54:36.412Z,12.90
2018-04-12T04:59:39.533Z,13.00
2018-04-12T05:04:42.153Z,13.00
2018-04-12T05:09:45.027Z,13.00
2018-04-12T05:14:47.706Z,13.10
2018-04-12T05:19:51.231Z,13.10
2018-04-12T05:24:54.898Z,13.20
2018-04-12T05:29:57.851Z,13.30
2018-04-12T05:35:00.474Z,13.30
2018-04-12T05:40:03.582Z,13.40
2018-04-12T05:45:06.390Z,13.40
2018-04-12T05:50:09.134Z,13.50
2018-04-12T05:55:11.802Z,13.50
2018-04-12T06:00:14.646Z,13.50
2018-04-12T06:05:17.671Z,13.60
2018-04-12T06:10:21.144Z,13.60
2018-04-12T06:15:24.039Z,13.60
2018-04-12T06:20:27.759Z,13.80
2018-04-12T06:25:31.518Z,13.70
2018-04-12T06:30:34.496Z,14.00
2018-04-12T06:35:38.477Z,14.20
2018-04-12T06:40:41.992Z,15.10
2018-04-12T06:45:45.069Z,15.10
2018-04-12T06:50:48.062Z,15.60
2018-04-12T06:55:50.987Z,16.10
2018-04-12T07:00:53.709Z,16.50
2018-04-12T07:05:56.601Z,17.00
2018-04-12T07:11:00.390Z,17.40
2018-04-12T07:16:03.092Z,17.40
2018-04-12T07:21:06.098Z,17.40
2018-04-12T07:26:09.329Z,17.50
2018-04-12T07:31:12.719Z,17.70
2018-04-12T07:36:15.689Z,18.00
2018-04-12T07:41:18.730Z,18.30
2018-04-12T07:46:22.846Z,18.60
2018-04-12T07:51:27.798Z,19.00
2018-04-12T07:56:30.472Z,19.20
2018-04-12T08:01:33.841Z,19.60
2018-04-12T08:06:36.995Z,19.80
2018-04-12T08:11:40.043Z,20.00
2018-04-12T08:16:43.070Z,20.10
2018-04-12T08:21:46.065Z,20.20
2018-04-12T08:26:49.079Z,20.20
2018-04-12T08:31:52.499Z,20.40
2018-04-12T08:36:55.320Z,20.60
2018-04-12T08:41:58.243Z,20.80
2018-04-12T08:47:01.960Z,21.40
2018-04-12T08:52:05.317Z,21.30
2018-04-12T08:57:08.065Z,21.70
2018-04-12T09:02:10.770Z,22.00
2018-04-12T09:07:14.570Z,22.20
2018-04-12T09:12:17.666Z,22.50
2018-04-12T09:17:21.954Z,22.80
2018-04-12T09:22:25.207Z,23.00
2018-04-12T09:27:28.851Z,23.10
2018-04-12T09:32:31.581Z,23.20
2018-04-12T09:37:34.327Z,23.20
2018-04-12T09:42:37.143Z,23.20
2018-04-12T09:47:40.017Z,23.10
2018-04-12T09:52:43.012Z,22.90
2018-04-12T09:57:45.777Z,22.80
2018-04-12T10:02:56.230Z,22.70
2018-04-12T10:08:09.020Z,22.60
2018-04-12T10:13:11.630Z,22.60
2018-04-12T10:18:14.374Z,22.60
2018-04-12T10:23:17.282Z,22.70
2018-04-12T10:28:21.175Z,22.80
2018-04-12T10:33:23.997Z,23.00
2018-04-12T10:38:26.925Z,23.10
2018-04-12T10:43:29.729Z,23.30
2018-04-12T10:48:32.782Z,23.40
2018-04-12T10:53:36.700Z,23.40
2018-04-12T10:58:39.711Z,23.40
2018-04-12T11:03:42.771Z,23.70
2018-04-12T11:08:46.876Z,23.80
2018-04-12T11:13:49.595Z,23.80
2018-04-12T11:18:52.748Z,23.80
2018-04-12T11:29:13.044Z,23.80
2018-04-12T11:34:15.801Z,23.70
2018-04-12T11:39:18.667Z,23.70
2018-04-12T11:44:21.326Z,23.70
2018-04-12T11:49:24.086Z,23.60
2018-04-12T11:54:26.735Z,23.50
2018-04-12T11:59:29.303Z,23.40
2018-04-12T12:04:31.930Z,23.30
2018-04-12T12:09:34.687Z,23.30
2018-04-12T12:14:37.348Z,23.20
2018-04-12T12:19:40.744Z,23.10
2018-04-12T12:24:44.385Z,23.20
2018-04-12T12:29:47.205Z,23.10
2018-04-12T12:34:49.873Z,23.10
2018-04-12T12:39:52.687Z,23.00
2018-04-12T12:44:55.404Z,22.90
2018-04-12T12:49:58.315Z,22.90
2018-04-12T12:55:01.121Z,22.80
2018-04-12T13:00:04.531Z,22.70
2018-04-12T13:05:08.499Z,22.60
2018-04-12T13:10:13.104Z,22.60
2018-04-12T13:15:16.269Z,22.50
2018-04-12T13:20:18.926Z,22.50
2018-04-12T13:25:21.589Z,22.50
2018-04-12T13:30:24.656Z,22.40
2018-04-12T13:35:28.636Z,22.40
2018-04-12T13:40:31.272Z,22.30
2018-04-12T13:45:34.188Z,22.30
2018-04-12T13:50:36.928Z,22.30
2018-04-12T13:55:39.777Z,22.20
2018-04-12T14:00:42.736Z,22.10
2018-04-12T14:05:45.688Z,22.10
2018-04-12T14:10:48.853Z,22.10
2018-04-12T14:15:51.506Z,22.00
2018-04-12T14:20:54.379Z,22.00
2018-04-12T14:31:03.813Z,21.80
2018-04-12T14:36:06.585Z,21.80
2018-04-12T14:41:10.125Z,21.70
2018-04-12T14:46:12.810Z,21.70
2018-04-12T14:51:18.391Z,21.70
2018-04-12T14:56:22.655Z,21.60
2018-04-12T15:01:26.539Z,21.60
2018-04-12T15:06:29.231Z,21.50
2018-04-12T15:11:32.481Z,21.50
2018-04-12T15:16:35.327Z,21.40
2018-04-12T15:21:38.275Z,21.40
2018-04-12T15:26:41.455Z,21.30
2018-04-12T15:31:44.134Z,21.30
2018-04-12T15:36:47.044Z,21.30
2018-04-12T15:41:51.454Z,21.30
2018-04-12T15:46:54.198Z,21.20
2018-04-12T15:51:57.805Z,21.20
2018-04-12T15:57:01.007Z,21.20
2018-04-12T16:02:04.649Z,21.20
2018-04-12T16:07:08.388Z,21.20
2018-04-12T16:12:14.753Z,21.10
2018-04-12T16:17:18.143Z,21.10
2018-04-12T16:22:25.328Z,21.10
2018-04-12T16:27:28.994Z,21.00
2018-04-12T16:32:32.176Z,21.00
2018-04-12T16:37:35.014Z,21.00
2018-04-12T16:42:38.733Z,20.90
2018-04-12T16:47:42.334Z,20.90
2018-04-12T16:52:45.360Z,20.90
2018-04-12T16:57:48.078Z,20.80
2018-04-12T17:02:50.759Z,20.80
2018-04-12T17:07:54.280Z,20.70
2018-04-12T17:12:57.718Z,20.70
2018-04-12T17:18:00.842Z,20.70
2018-04-12T17:23:03.625Z,20.60
2018-04-12T17:28:07.571Z,20.50
2018-04-12T17:33:12.304Z,20.50
2018-04-12T17:38:15.840Z,20.40
2018-04-12T17:43:18.935Z,20.40
2018-04-12T17:48:22.334Z,20.30
2018-04-12T17:53:26.030Z,20.20
2018-04-12T17:58:29.656Z,20.10
2018-04-12T18:03:33.454Z,20.10
2018-04-12T18:08:37.114Z,19.90
2018-04-12T18:13:40.393Z,19.80
2018-04-12T18:18:43.270Z,19.80
2018-04-12T18:23:46.322Z,19.70
2018-04-12T18:28:49.575Z,19.60
2018-04-12T18:33:54.327Z,19.40
2018-04-12T18:38:58.962Z,19.40
2018-04-12T18:44:02.173Z,19.40
2018-04-12T18:49:06.593Z,19.20
2018-04-12T18:54:09.564Z,19.20
2018-04-12T18:59:13.653Z,19.10
2018-04-12T19:04:16.684Z,19.00
2018-04-12T19:09:19.894Z,18.90
2018-04-12T19:14:23.576Z,18.80
2018-04-12T19:19:27.152Z,18.70
2018-04-12T19:24:31.296Z,18.70
2018-04-12T19:34:43.166Z,18.50
2018-04-12T19:39:46.633Z,18.40
2018-04-12T19:44:50.106Z,18.40
2018-04-12T19:49:53.078Z,18.30
2018-04-12T19:54:56.578Z,18.20
2018-04-12T20:00:00.172Z,18.10
2018-04-12T20:05:03.194Z,18.00
2018-04-12T20:10:07.031Z,17.90
2018-04-12T20:15:10.014Z,17.90
2018-04-12T20:20:14.277Z,17.80
2018-04-12T20:25:17.104Z,17.70
2018-04-12T20:30:20.040Z,17.60
2018-04-12T20:35:23.278Z,17.50
2018-04-12T20:40:26.314Z,17.50
2018-04-12T20:45:29.215Z,17.40
2018-04-12T20:50:33.187Z,17.40
2018-04-12T20:55:36.597Z,17.30
2018-04-12T21:00:39.568Z,17.20
2018-04-12T21:05:42.420Z,17.20
2018-04-12T21:10:45.421Z,17.10
2018-04-12T21:15:48.284Z,17.00
2018-04-12T21:20:52.998Z,16.90
2018-04-12T21:25:56.092Z,16.80
2018-04-12T21:30:59.005Z,16.80
2018-04-12T21:36:05.911Z,16.70
2018-04-12T21:41:08.797Z,16.60
2018-04-12T21:46:11.842Z,16.50
2018-04-12T21:51:14.774Z,16.40
2018-04-12T21:56:17.621Z,16.30
2018-04-12T22:01:20.607Z,16.30
2018-04-12T22:06:24.165Z,16.10
2018-04-12T22:11:29.343Z,16.10
2018-04-12T22:16:32.392Z,16.00
2018-04-12T22:21:36.505Z,15.90
2018-04-12T22:26:39.433Z,15.80
2018-04-12T22:31:42.345Z,15.70
2018-04-12T22:36:45.265Z,15.70
2018-04-12T22:41:48.111Z,15.60
2018-04-12T22:46:51.384Z,15.50
2018-04-12T22:51:54.442Z,15.50
2018-04-12T22:56:58.114Z,15.40
2018-04-12T23:02:02.394Z,15.30
2018-04-12T23:07:05.867Z,15.20
2018-04-12T23:12:08.755Z,15.10
2018-04-12T23:17:12.037Z,15.10
2018-04-12T23:22:15.536Z,15.00
2018-04-12T23:27:18.564Z,14.90
2018-04-12T23:32:21.869Z,14.80
2018-04-12T23:37:25.578Z,14.70
2018-04-12T23:42:28.607Z,14.70
2018-04-12T23:47:31.519Z,14.60
2018-04-12T23:52:34.589Z,14.50
2018-04-12T23:57:38.357Z,14.50
